Asotin, WA

2:15 AM PDT on August 22, 2014 (GMT -0700)
Nick's Weather Station | Change Station
CLOSE
Current Station
Personal Weather Station
Location: Lewiston, ID
Elevation: 1076 ft
Nearby Weather Stations

Elev 1076 ft 46.37 °N, 117.04 °W | Updated 5 seconds ago

Clear
Clear
67.7 °F
Feels Like 67.7 °F
N
0.0
Wind Variable Wind from NW
Gusts 0.0 mph

Today
High -- | Low -- °F
--% Chance of Precip.
Yesterday
High -- | Low -- °F
Precip. -- in
5:55 AM 7:45 PM
Waning Crescent, 9% visible
Pressure 29.83 in
Visibility 10.0 miles
Clouds Clear
Dew Point 46 °F
Humidity 46%
Rainfall 0.00 in
Snow Depth Not available.
UV 0 out of 12
Pollen 6.90 out of 12
Air Quality Not available.
Flu Activity Not available.
METAR KLWS 220856Z AUTO 15004KT 10SM CLR 19/07 A2986 RMK AO2 SLP102 T01940072 50000

More Conditions Fewer Conditions

Pressure 29.83 in
Visibility 10.0 miles
Clouds Clear
Dew Point 46 °F
Humidity 46%
Rainfall 0.00 in
Snow Depth Not available.
UV 0 out of 12
Pollen 6.90 out of 12
Air Quality Not available.
Flu Activity Not available.
METAR KLWS 220856Z AUTO 15004KT 10SM CLR 19/07 A2986 RMK AO2 SLP102 T01940072 50000

More Conditions Fewer Conditions

10-Day Weather Forecast

Almanac

Astronomy

Aug. 22, 2014 Rise Set
Actual Time 5:55 AM PDT 7:45 PM PDT
Civil Twilight 5:23 AM PDT 8:17 PM PDT
Nautical Twilight 4:44 AM PDT 8:56 PM PDT
Astronomical Twilight 4:01 AM PDT 9:38 PM PDT
Moon 3:18 AM PDT 5:59 PM PDT
Length of Visible Light 14h 53m
Length of Day
13h 49m
Tomorrow will be 3m 4s shorter.
Waning Crescent, 9% of the Moon is Illuminated
Today
Waning Crescent
Aug 25
New
Sep 2
First Quarter
Sep 8
Full
Sep 15
Last Quarter

Today's Extremes

State Highs State Lows

Community

WunderPhotos

Upload Photos

1,746,146 photos uploaded!

Nearby

Snow Depth

Station Depth Elevation
Sourdough Gulch 0 in 4000 ft
Spruce Springs 0 in 5700 ft
Quartz Peak 2 in 4700 ft
Bunchgrass Meadow 0 in 5000 ft
Trough 0 in 5300 ft

Earthquake Activity

City Distance Mag. Time & Date
No recent earthquake activity has been reported nearby.
Minimum magnitude displayed is 2.5.

Coastal Water Temperatures

Place Temperature
No Stations Reporting

Nearby Weather Stations